This is the latest recevied weather packets stored in our database for station/object N3WMC. If no packets are shown the sender has not sent any weather packets the latest 10 day(s).
| Time | Temp. | Humidity | Pressure | Rain* | Wind** | Luminosity | Snow |
|---|---|---|---|---|---|---|---|
| 1777841915 | 15° C | 35% | 1014.4 hPa | 0 mm | - | 125 W/m² | - |
| 1777841612 | 16.11° C | 35% | 1014.4 hPa | 0 mm | - | 278 W/m² | - |
| 1777841309 | 15.56° C | 34% | 1014.5 hPa | 0 mm | - | 479 W/m² | - |
| 1777841006 | 15.56° C | 35% | 1014.4 hPa | 0 mm | - | 177 W/m² | - |
| 1777840703 | 15.56° C | 34% | 1014.5 hPa | 0 mm | - | 129 W/m² | - |
| 1777840401 | 15° C | 34% | 1014.3 hPa | 0 mm | - | 199 W/m² | - |
| 1777840097 | 15° C | 36% | 1014.6 hPa | 0 mm | - | 123 W/m² | - |
| 1777839795 | 15.56° C | 36% | 1014.7 hPa | 0 mm | - | 113 W/m² | - |
| 1777839493 | 15.56° C | 36% | 1014.8 hPa | 0 mm | - | 553 W/m² | - |
| 1777839190 | 15° C | 38% | 1014.6 hPa | 0 mm | - | 168 W/m² | - |
| 1777838888 | 15° C | 36% | 1014.8 hPa | 0 mm | - | 156 W/m² | - |
| 1777838583 | 15° C | 38% | 1014.7 hPa | 0 mm | - | 216 W/m² | - |
| 1777838281 | 15° C | 36% | 1014.9 hPa | 0 mm | - | 152 W/m² | - |
| 1777837977 | 15.56° C | 34% | 1015 hPa | 0 mm | - | 209 W/m² | - |
| 1777837675 | 15° C | 36% | 1015.1 hPa | 0 mm | - | 179 W/m² | - |
| 1777837370 | 16.67° C | 33% | 1015.2 hPa | 0 mm | - | 206 W/m² | - |
| 1777837061 | 15.56° C | 36% | 1015.2 hPa | 0 mm | - | 650 W/m² | - |
| 1777836758 | 13.89° C | 36% | 1015.5 hPa | 0 mm | - | 671 W/m² | - |
| 1777836453 | 14.44° C | 37% | 1015.6 hPa | 0 mm | - | 168 W/m² | - |
| 1777836148 | 15.56° C | 36% | 1015.6 hPa | 0 mm | - | 607 W/m² | - |
| 1777835846 | 14.44° C | 37% | 1015.5 hPa | 0 mm | - | 681 W/m² | - |
| 1777835543 | 15° C | 36% | 1015.8 hPa | 0 mm | - | 714 W/m² | - |
| 1777835240 | 13.89° C | 39% | 1015.8 hPa | 0 mm | - | 743 W/m² | - |
| 1777834936 | 14.44° C | 36% | 1015.5 hPa | 0 mm | - | 498 W/m² | - |
| 1777834634 | 13.89° C | 38% | 1015.9 hPa | 0 mm | - | 660 W/m² | - |
* Rain latest hour (hover to see other rain measurements)
** Current wind speed in m/s (hover to see current wind gust speed)